Atlantic Beach, New York
Current Conditions -  °F | °C
As of 7:51 PM on Monday 20 Oct 2014 (Local Time) from KJFK Reporting Station
Broken Clouds Broken Clouds  
Wind Chill: 56°   Ceiling: 26000
Heat Index: 56°   Visibility: 10mi
Dew Point: 41°   Wind: 8mph
Humidity: 57%   Direction: 220°SW
Pressure: 30"   Gusts: NA
Location:  40.59°N, 73.73°W
Report Text: KJFK 202351Z 22007KT 10SM FEW150 SCT210 BKN260 13/05 A3000 RMK AO2 SLP157 T01330050 10161 20133 53001
Loading
Personal Weather Stations






























Interactive Weather Map
Tropical Storm Tracking
New forecast layout! Learn more

10-Day Weather Forecast

Advertisements
Track Severe Weather on mobile